createdAt,value
2022-08-26T00:00:35.721Z,21.81
2022-08-26T00:03:39.369Z,21.83
2022-08-26T00:06:42.645Z,21.89
2022-08-26T00:09:50.031Z,21.89
2022-08-26T00:12:52.099Z,21.89
2022-08-26T00:15:54.141Z,21.70
2022-08-26T00:18:56.388Z,21.68
2022-08-26T00:21:58.433Z,21.68
2022-08-26T00:25:00.551Z,21.71
2022-08-26T00:28:02.518Z,21.71
2022-08-26T00:31:04.978Z,21.70
2022-08-26T00:34:09.340Z,21.61
2022-08-26T00:37:15.690Z,21.51
2022-08-26T00:40:21.567Z,21.27
2022-08-26T00:43:25.115Z,21.43
2022-08-26T00:46:29.562Z,21.51
2022-08-26T00:49:40.391Z,21.49
2022-08-26T00:52:44.053Z,21.47
2022-08-26T00:55:46.275Z,21.45
2022-08-26T00:58:48.572Z,21.50
2022-08-26T01:01:51.840Z,21.47
2022-08-26T01:04:58.131Z,21.43
2022-08-26T01:07:59.935Z,21.41
2022-08-26T01:11:02.679Z,21.45
2022-08-26T01:14:07.158Z,21.39
2022-08-26T01:17:09.753Z,21.43
2022-08-26T01:20:30.451Z,21.41
2022-08-26T01:23:42.338Z,21.39
2022-08-26T01:26:47.431Z,21.43
2022-08-26T01:29:51.833Z,21.23
2022-08-26T01:32:58.422Z,21.24
2022-08-26T01:36:01.049Z,21.27
2022-08-26T01:39:05.890Z,21.28
2022-08-26T01:42:11.916Z,21.34
2022-08-26T01:45:19.761Z,21.30
2022-08-26T01:48:26.085Z,21.32
2022-08-26T01:51:31.684Z,21.29
2022-08-26T01:54:34.418Z,21.27
2022-08-26T01:57:36.663Z,21.25
2022-08-26T02:00:38.563Z,21.14
2022-08-26T02:04:10.338Z,21.12
2022-08-26T02:07:12.677Z,20.96
2022-08-26T02:10:15.303Z,20.96
2022-08-26T02:13:17.295Z,20.92
2022-08-26T02:16:22.790Z,20.87
2022-08-26T02:19:34.437Z,20.98
2022-08-26T02:22:36.280Z,21.04
2022-08-26T02:25:46.623Z,21.00
2022-08-26T02:29:10.562Z,20.94
2022-08-26T02:32:14.868Z,20.96
2022-08-26T02:35:24.012Z,20.84
2022-08-26T02:38:26.260Z,20.76
2022-08-26T02:41:29.206Z,20.71
2022-08-26T02:44:34.903Z,20.71
2022-08-26T02:47:37.566Z,20.72
2022-08-26T02:50:40.132Z,20.62
2022-08-26T02:53:42.487Z,20.61
2022-08-26T02:56:45.628Z,20.59
2022-08-26T02:59:47.852Z,20.63
2022-08-26T03:02:50.917Z,20.72
2022-08-26T03:05:54.242Z,20.70
2022-08-26T03:08:56.952Z,20.71
2022-08-26T03:12:00.844Z,20.72
2022-08-26T03:15:13.152Z,20.69
2022-08-26T03:18:21.221Z,20.64
2022-08-26T03:21:23.265Z,20.53
2022-08-26T03:24:26.773Z,20.52
2022-08-26T03:27:28.829Z,20.51
2022-08-26T03:30:44.664Z,20.57
2022-08-26T03:33:48.588Z,20.58
2022-08-26T03:36:52.077Z,20.57
2022-08-26T03:39:54.765Z,20.58
2022-08-26T03:42:56.933Z,20.62
2022-08-26T03:45:58.917Z,20.61
2022-08-26T03:49:02.108Z,20.53
2022-08-26T03:52:04.581Z,20.48
2022-08-26T03:55:08.685Z,20.47
2022-08-26T03:58:10.696Z,20.50
2022-08-26T04:01:16.261Z,20.52
2022-08-26T04:04:18.587Z,20.54
2022-08-26T04:07:33.400Z,20.55
2022-08-26T04:10:38.428Z,20.55
2022-08-26T04:13:40.507Z,20.53
2022-08-26T04:16:43.777Z,20.47
2022-08-26T04:19:45.740Z,20.44
2022-08-26T04:22:48.698Z,20.42
2022-08-26T04:25:50.589Z,20.46
2022-08-26T04:28:54.837Z,20.50
2022-08-26T04:31:56.696Z,20.56
2022-08-26T04:34:58.677Z,20.65
2022-08-26T04:38:03.294Z,20.95
2022-08-26T04:41:15.589Z,21.73
2022-08-26T04:44:19.049Z,22.40
2022-08-26T04:47:21.147Z,22.37
2022-08-26T04:50:23.955Z,21.92
2022-08-26T04:53:27.319Z,21.66
2022-08-26T04:56:34.065Z,21.48
2022-08-26T04:59:39.268Z,21.31
2022-08-26T05:02:41.674Z,21.34
2022-08-26T05:05:46.494Z,21.34
2022-08-26T05:08:48.549Z,21.31
2022-08-26T05:11:52.067Z,21.45
2022-08-26T05:14:54.494Z,21.48
2022-08-26T05:17:59.297Z,21.60
2022-08-26T05:21:03.966Z,21.64
2022-08-26T05:24:06.516Z,21.74
2022-08-26T05:27:11.814Z,21.87
2022-08-26T05:30:15.232Z,21.88
2022-08-26T05:33:18.435Z,22.10
2022-08-26T05:36:22.711Z,22.23
2022-08-26T05:39:24.847Z,22.11
2022-08-26T05:42:26.825Z,22.29
2022-08-26T05:45:29.265Z,22.45
2022-08-26T05:48:31.182Z,22.55
2022-08-26T05:51:36.681Z,22.74
2022-08-26T05:54:41.761Z,22.87
2022-08-26T05:57:44.478Z,22.95
2022-08-26T06:00:47.285Z,23.08
2022-08-26T06:03:52.037Z,23.14
2022-08-26T06:06:56.333Z,23.40
2022-08-26T06:10:21.346Z,23.52
2022-08-26T06:13:24.618Z,23.83
2022-08-26T06:16:26.676Z,24.23
2022-08-26T06:19:33.132Z,24.44
2022-08-26T06:22:54.931Z,24.80
2022-08-26T06:25:56.966Z,24.93
2022-08-26T06:28:59.852Z,25.12
2022-08-26T06:32:04.523Z,25.29
2022-08-26T06:35:06.931Z,25.33
2022-08-26T06:38:14.842Z,25.58
2022-08-26T06:41:18.519Z,25.67
2022-08-26T06:44:21.960Z,26.04
2022-08-26T06:47:24.013Z,26.13
2022-08-26T06:50:26.741Z,26.30
2022-08-26T06:53:29.791Z,26.37
2022-08-26T06:56:41.287Z,26.63
2022-08-26T06:59:43.442Z,26.69
2022-08-26T07:02:46.222Z,26.92
2022-08-26T07:05:50.336Z,27.07
2022-08-26T07:09:04.197Z,27.39
2022-08-26T07:12:06.977Z,27.25
2022-08-26T07:15:10.341Z,27.48
2022-08-26T07:18:12.277Z,27.59
2022-08-26T07:21:18.200Z,27.77
2022-08-26T07:24:20.294Z,27.58
2022-08-26T07:27:22.771Z,27.60
2022-08-26T07:30:25.816Z,27.73
2022-08-26T07:33:29.119Z,27.62
2022-08-26T07:36:32.802Z,27.65
2022-08-26T07:39:34.977Z,27.83
2022-08-26T07:42:36.895Z,28.10
2022-08-26T07:45:38.857Z,28.29
2022-08-26T07:48:40.917Z,28.45
2022-08-26T07:51:49.410Z,28.52
2022-08-26T07:54:51.385Z,28.63
2022-08-26T07:57:53.571Z,28.55
2022-08-26T08:00:55.684Z,28.86
2022-08-26T08:04:00.633Z,28.64
2022-08-26T08:07:04.292Z,28.63
2022-08-26T08:10:11.456Z,28.59
2022-08-26T08:13:14.399Z,28.44
2022-08-26T08:16:16.983Z,28.75
2022-08-26T08:19:18.897Z,28.85
2022-08-26T08:22:23.947Z,28.57
2022-08-26T08:25:26.968Z,28.77
2022-08-26T08:28:29.130Z,29.05
2022-08-26T08:31:55.732Z,29.10
2022-08-26T08:34:56.577Z,28.79
2022-08-26T08:37:58.952Z,28.91
2022-08-26T08:41:01.075Z,28.99
2022-08-26T08:44:11.224Z,28.97
2022-08-26T08:47:29.860Z,29.45
2022-08-26T08:50:35.413Z,29.32
2022-08-26T08:53:41.958Z,29.73
2022-08-26T08:56:53.156Z,29.51
2022-08-26T09:00:05.867Z,29.76
2022-08-26T09:03:26.653Z,30.21
2022-08-26T09:06:28.643Z,30.02
2022-08-26T09:09:35.569Z,29.69
2022-08-26T09:12:37.416Z,29.68
2022-08-26T09:15:46.984Z,29.93
2022-08-26T09:18:59.284Z,30.15
2022-08-26T09:22:04.628Z,29.92
2022-08-26T09:25:11.966Z,29.89
2022-08-26T09:28:18.229Z,30.39
2022-08-26T09:31:29.640Z,30.49
2022-08-26T09:34:31.973Z,30.08
2022-08-26T09:37:42.307Z,29.72
2022-08-26T09:40:58.967Z,29.80
2022-08-26T09:44:21.857Z,29.75
2022-08-26T09:47:38.254Z,29.95
2022-08-26T09:50:54.912Z,30.47
2022-08-26T09:54:03.318Z,30.55
2022-08-26T09:57:16.428Z,30.78
2022-08-26T10:00:30.525Z,30.42
2022-08-26T10:03:35.035Z,30.35
2022-08-26T10:06:41.807Z,30.29
2022-08-26T10:09:44.575Z,30.65
2022-08-26T10:13:15.255Z,30.66
2022-08-26T10:16:48.660Z,30.69
2022-08-26T10:20:09.858Z,30.61
2022-08-26T10:23:29.273Z,30.68
2022-08-26T10:26:53.489Z,30.27
2022-08-26T10:30:02.323Z,30.47
2022-08-26T10:33:10.761Z,30.28
2022-08-26T10:36:47.035Z,30.84
2022-08-26T10:40:02.722Z,30.64
2022-08-26T10:43:10.965Z,31.09
2022-08-26T10:46:17.682Z,31.57
2022-08-26T10:49:20.860Z,31.00
2022-08-26T10:52:29.375Z,30.72
2022-08-26T10:55:43.947Z,30.88
2022-08-26T10:59:12.451Z,30.94
2022-08-26T11:02:24.781Z,31.20
2022-08-26T11:05:27.245Z,31.50
2022-08-26T11:08:29.969Z,31.61
2022-08-26T11:11:41.841Z,31.35
2022-08-26T11:14:58.419Z,32.02
2022-08-26T11:18:08.302Z,32.23
2022-08-26T11:21:50.702Z,32.45
2022-08-26T11:24:52.896Z,32.61
2022-08-26T11:28:00.676Z,32.61
2022-08-26T11:31:04.669Z,32.79
2022-08-26T11:34:08.710Z,33.17
2022-08-26T11:37:14.993Z,33.50
2022-08-26T11:40:38.737Z,32.45
2022-08-26T11:43:41.243Z,32.32
2022-08-26T11:47:01.498Z,31.97
2022-08-26T11:50:23.802Z,32.49
2022-08-26T11:53:28.019Z,32.61
2022-08-26T11:56:34.965Z,33.14
2022-08-26T11:59:40.089Z,33.50
2022-08-26T12:02:42.799Z,33.85
2022-08-26T12:05:47.567Z,34.11
2022-08-26T12:08:50.647Z,33.80
2022-08-26T12:11:57.930Z,34.28
2022-08-26T12:15:23.091Z,34.22
2022-08-26T12:18:33.135Z,33.67
2022-08-26T12:21:36.658Z,33.47
2022-08-26T12:24:47.042Z,33.13
2022-08-26T12:27:53.546Z,32.77
2022-08-26T12:31:26.094Z,32.44
2022-08-26T12:34:28.518Z,32.41
2022-08-26T12:37:34.989Z,32.04
2022-08-26T12:40:43.786Z,31.34
2022-08-26T12:43:46.476Z,30.39
2022-08-26T12:46:49.804Z,30.20
2022-08-26T12:50:06.434Z,29.73
2022-08-26T12:53:22.947Z,29.61
2022-08-26T12:56:25.149Z,29.57
2022-08-26T12:59:35.226Z,29.44
2022-08-26T13:02:40.478Z,29.33
2022-08-26T13:05:42.820Z,29.14
2022-08-26T13:08:45.781Z,29.07
2022-08-26T13:11:48.567Z,29.16
2022-08-26T13:14:51.450Z,29.03
2022-08-26T13:17:53.552Z,28.97
2022-08-26T13:21:00.437Z,28.91
2022-08-26T13:24:12.602Z,28.98
2022-08-26T13:27:15.583Z,28.94
2022-08-26T13:30:17.732Z,28.69
2022-08-26T13:33:21.633Z,28.81
2022-08-26T13:36:27.536Z,28.99
2022-08-26T13:39:29.596Z,28.90
2022-08-26T13:42:31.573Z,29.08
2022-08-26T13:45:33.620Z,29.09
2022-08-26T13:48:35.804Z,29.14
2022-08-26T13:51:39.631Z,29.25
2022-08-26T13:54:41.853Z,29.36
2022-08-26T13:57:44.090Z,29.43
2022-08-26T14:00:46.301Z,29.42
2022-08-26T14:03:49.088Z,29.41
2022-08-26T14:06:51.540Z,29.30
2022-08-26T14:09:53.661Z,29.28
2022-08-26T14:12:56.697Z,29.46
2022-08-26T14:16:01.649Z,29.48
2022-08-26T14:19:05.486Z,29.37
2022-08-26T14:22:07.438Z,29.50
2022-08-26T14:25:12.128Z,29.38
2022-08-26T14:28:14.326Z,29.39
2022-08-26T14:31:17.360Z,29.54
2022-08-26T14:34:19.459Z,29.04
2022-08-26T14:37:21.933Z,29.31
2022-08-26T14:40:25.125Z,29.21
2022-08-26T14:43:27.713Z,29.21
2022-08-26T14:46:32.628Z,29.30
2022-08-26T14:49:35.017Z,29.57
2022-08-26T14:52:56.883Z,29.57
2022-08-26T14:55:58.960Z,29.41
2022-08-26T14:59:01.166Z,29.24
2022-08-26T15:02:05.059Z,29.17
2022-08-26T15:05:08.859Z,29.20
2022-08-26T15:08:12.137Z,29.52
2022-08-26T15:11:14.678Z,29.76
2022-08-26T15:14:19.534Z,30.18
2022-08-26T15:17:22.035Z,30.58
2022-08-26T15:20:24.753Z,30.59
2022-08-26T15:23:27.164Z,30.60
2022-08-26T15:26:31.041Z,30.52
2022-08-26T15:29:36.248Z,30.50
2022-08-26T15:32:38.795Z,30.49
2022-08-26T15:35:41.456Z,30.38
2022-08-26T15:38:45.605Z,29.94
2022-08-26T15:41:50.415Z,29.79
2022-08-26T15:44:53.488Z,29.78
2022-08-26T15:48:01.168Z,29.94
2022-08-26T15:51:06.317Z,29.94
2022-08-26T15:54:10.346Z,29.86
2022-08-26T15:57:15.353Z,29.62
2022-08-26T16:00:18.604Z,29.20
2022-08-26T16:03:21.189Z,28.63
2022-08-26T16:06:27.747Z,28.28
2022-08-26T16:09:31.297Z,27.88
2022-08-26T16:12:33.990Z,27.60
2022-08-26T16:15:38.194Z,27.39
2022-08-26T16:18:43.090Z,27.10
2022-08-26T16:21:47.070Z,26.74
2022-08-26T16:24:49.613Z,26.60
2022-08-26T16:27:52.558Z,26.50
2022-08-26T16:30:55.208Z,26.37
2022-08-26T16:33:57.803Z,26.25
2022-08-26T16:37:00.980Z,26.27
2022-08-26T16:40:04.689Z,26.20
2022-08-26T16:43:07.620Z,26.05
2022-08-26T16:46:11.502Z,25.97
2022-08-26T16:49:14.783Z,25.90
2022-08-26T16:52:17.737Z,25.76
2022-08-26T16:55:20.528Z,25.71
2022-08-26T16:58:23.098Z,25.67
2022-08-26T17:01:26.097Z,25.48
2022-08-26T17:04:29.280Z,25.26
2022-08-26T17:07:31.750Z,25.10
2022-08-26T17:10:34.750Z,25.05
2022-08-26T17:13:38.246Z,25.07
2022-08-26T17:16:40.951Z,24.99
2022-08-26T17:19:46.863Z,24.96
2022-08-26T17:22:50.878Z,24.67
2022-08-26T17:25:52.962Z,24.84
2022-08-26T17:28:55.758Z,24.90
2022-08-26T17:31:58.191Z,24.80
2022-08-26T17:35:01.760Z,24.75
2022-08-26T17:38:05.178Z,24.75
2022-08-26T17:41:09.173Z,24.71
2022-08-26T17:44:12.573Z,24.47
2022-08-26T17:47:15.250Z,24.43
2022-08-26T17:50:19.416Z,24.45
2022-08-26T17:53:22.096Z,24.42
2022-08-26T17:56:27.628Z,24.39
2022-08-26T17:59:30.641Z,24.34
2022-08-26T18:02:34.934Z,24.24
2022-08-26T18:05:37.041Z,24.12
2022-08-26T18:08:39.989Z,24.06
2022-08-26T18:11:42.164Z,24.15
2022-08-26T18:14:44.299Z,23.96
2022-08-26T18:17:47.088Z,23.98
2022-08-26T18:20:52.633Z,23.83
2022-08-26T18:24:03.847Z,23.75
2022-08-26T18:27:07.346Z,23.61
2022-08-26T18:30:16.400Z,23.71
2022-08-26T18:33:21.709Z,23.63
2022-08-26T18:36:27.865Z,23.53
2022-08-26T18:39:30.074Z,23.43
2022-08-26T18:42:32.508Z,23.37
2022-08-26T18:45:35.709Z,23.37
2022-08-26T18:48:40.406Z,23.36
2022-08-26T18:51:43.775Z,23.25
2022-08-26T18:54:46.733Z,23.17
2022-08-26T18:57:49.982Z,23.10
2022-08-26T19:00:52.753Z,23.05
2022-08-26T19:03:57.001Z,23.05
2022-08-26T19:07:00.511Z,23.13
2022-08-26T19:10:06.372Z,23.19
2022-08-26T19:13:10.444Z,23.04
2022-08-26T19:16:23.038Z,22.88
2022-08-26T19:19:25.916Z,22.98
2022-08-26T19:22:28.383Z,22.87
2022-08-26T19:25:31.847Z,22.91
2022-08-26T19:28:35.014Z,22.83
2022-08-26T19:31:38.696Z,22.75
2022-08-26T19:34:41.350Z,22.64
2022-08-26T19:37:44.580Z,22.60
2022-08-26T19:40:49.365Z,22.62
2022-08-26T19:43:53.617Z,22.57
2022-08-26T19:47:01.627Z,22.61
2022-08-26T19:50:07.452Z,22.44
2022-08-26T19:53:10.658Z,22.37
2022-08-26T19:56:13.978Z,22.35
2022-08-26T19:59:16.391Z,22.34
2022-08-26T20:02:20.755Z,22.47
2022-08-26T20:05:25.319Z,22.43
2022-08-26T20:08:29.262Z,22.35
2022-08-26T20:11:32.093Z,22.35
2022-08-26T20:14:37.674Z,22.29
2022-08-26T20:17:40.664Z,22.22
2022-08-26T20:21:01.804Z,22.15
2022-08-26T20:24:14.047Z,22.11
2022-08-26T20:27:16.089Z,22.19
2022-08-26T20:30:18.101Z,22.25
2022-08-26T20:33:21.225Z,22.07
2022-08-26T20:36:26.057Z,22.07
2022-08-26T20:39:31.340Z,22.17
2022-08-26T20:42:34.825Z,22.19
2022-08-26T20:45:37.246Z,22.14
2022-08-26T20:48:39.449Z,22.18
2022-08-26T20:51:45.776Z,22.14
2022-08-26T20:54:47.928Z,22.09
2022-08-26T20:57:50.109Z,22.14
2022-08-26T21:00:52.384Z,22.16
2022-08-26T21:03:56.953Z,22.10
2022-08-26T21:06:58.948Z,22.03
2022-08-26T21:10:04.273Z,21.94
2022-08-26T21:13:07.889Z,21.90
2022-08-26T21:16:12.334Z,21.81
2022-08-26T21:19:17.695Z,21.83
2022-08-26T21:22:19.795Z,21.80
2022-08-26T21:25:22.158Z,21.86
2022-08-26T21:28:24.333Z,21.81
2022-08-26T21:31:26.460Z,21.70
2022-08-26T21:34:28.775Z,21.66
2022-08-26T21:37:32.765Z,21.52
2022-08-26T21:40:35.996Z,21.54
2022-08-26T21:43:38.699Z,21.49
2022-08-26T21:46:41.151Z,21.42
2022-08-26T21:49:44.702Z,21.35
2022-08-26T21:52:47.576Z,21.31
2022-08-26T21:55:49.539Z,21.21
2022-08-26T21:58:52.430Z,21.20
2022-08-26T22:01:55.007Z,21.17
2022-08-26T22:04:57.336Z,21.18
2022-08-26T22:07:59.588Z,21.13
2022-08-26T22:11:02.203Z,21.11
2022-08-26T22:14:04.237Z,21.00
2022-08-26T22:17:06.621Z,21.03
2022-08-26T22:20:16.346Z,20.92
2022-08-26T22:23:18.618Z,20.84
2022-08-26T22:26:25.842Z,20.91
2022-08-26T22:29:28.092Z,21.00
2022-08-26T22:32:30.207Z,21.09
2022-08-26T22:35:32.363Z,20.98
2022-08-26T22:38:34.652Z,20.75
2022-08-26T22:41:45.221Z,20.58
2022-08-26T22:44:47.220Z,20.57
2022-08-26T22:47:49.342Z,20.58
2022-08-26T22:50:53.844Z,20.62
2022-08-26T22:53:58.488Z,20.66
2022-08-26T22:57:00.958Z,20.61
2022-08-26T23:00:04.249Z,20.56
2022-08-26T23:03:06.255Z,20.57
2022-08-26T23:06:11.948Z,20.54
2022-08-26T23:09:13.942Z,20.49
2022-08-26T23:12:16.752Z,20.46
2022-08-26T23:15:19.445Z,20.37
2022-08-26T23:18:21.850Z,20.36
2022-08-26T23:21:23.821Z,20.35
2022-08-26T23:24:26.156Z,20.29
2022-08-26T23:27:28.953Z,20.22
2022-08-26T23:30:32.374Z,20.25
2022-08-26T23:33:53.244Z,20.18
2022-08-26T23:36:55.404Z,20.17
2022-08-26T23:39:58.281Z,20.17
2022-08-26T23:43:03.700Z,20.19
2022-08-26T23:46:05.914Z,20.21
2022-08-26T23:49:07.971Z,20.25
2022-08-26T23:52:31.551Z,20.34
2022-08-26T23:55:38.174Z,20.27
2022-08-26T23:58:39.943Z,19.98
